createdAt,value
2018-08-03T00:00:26.458Z,76.37
2018-08-03T00:01:26.483Z,76.57
2018-08-03T00:02:26.513Z,76.95
2018-08-03T00:03:26.535Z,75.79
2018-08-03T00:04:26.548Z,75.60
2018-08-03T00:05:26.575Z,76.67
2018-08-03T00:06:26.600Z,76.47
2018-08-03T00:07:26.626Z,75.89
2018-08-03T00:08:26.652Z,76.86
2018-08-03T00:09:26.678Z,76.47
2018-08-03T00:10:26.705Z,75.12
2018-08-03T00:11:26.732Z,75.89
2018-08-03T00:12:26.756Z,75.51
2018-08-03T00:13:26.772Z,76.37
2018-08-03T00:14:26.796Z,75.41
2018-08-03T00:15:26.822Z,75.79
2018-08-03T00:16:26.848Z,75.41
2018-08-03T00:17:26.876Z,75.12
2018-08-03T00:18:26.903Z,75.51
2018-08-03T00:19:26.927Z,75.85
2018-08-03T00:20:26.952Z,75.12
2018-08-03T00:21:26.977Z,74.16
2018-08-03T00:22:27.004Z,74.64
2018-08-03T00:23:27.017Z,75.02
2018-08-03T00:24:27.055Z,75.12
2018-08-03T00:25:27.068Z,74.89
2018-08-03T00:26:27.094Z,75.31
2018-08-03T00:27:27.120Z,76.15
2018-08-03T00:28:27.146Z,75.85
2018-08-03T00:29:27.172Z,75.85
2018-08-03T00:30:27.199Z,76.34
2018-08-03T00:31:27.223Z,76.34
2018-08-03T00:32:27.250Z,76.28
2018-08-03T00:33:27.264Z,76.05
2018-08-03T00:34:27.292Z,75.95
2018-08-03T00:35:27.316Z,75.76
2018-08-03T00:36:27.342Z,76.24
2018-08-03T00:37:27.368Z,76.24
2018-08-03T00:38:27.397Z,75.57
2018-08-03T00:39:27.420Z,76.34
2018-08-03T00:40:27.446Z,75.76
2018-08-03T00:41:27.474Z,75.76
2018-08-03T00:42:27.498Z,75.95
2018-08-03T00:43:27.511Z,75.95
2018-08-03T00:44:27.537Z,76.34
2018-08-03T00:45:27.562Z,76.63
2018-08-03T00:46:27.601Z,75.85
2018-08-03T00:47:27.614Z,75.95
2018-08-03T00:48:27.640Z,76.05
2018-08-03T00:49:27.665Z,75.67
2018-08-03T00:50:27.691Z,75.85
2018-08-03T00:51:27.718Z,75.95
2018-08-03T00:52:27.743Z,76.05
2018-08-03T00:53:27.759Z,76.53
2018-08-03T00:54:27.794Z,75.57
2018-08-03T00:55:27.810Z,75.67
2018-08-03T00:56:27.835Z,75.85
2018-08-03T00:57:27.862Z,75.95
2018-08-03T00:58:27.887Z,75.85
2018-08-03T00:59:27.913Z,75.95
2018-08-03T01:00:27.939Z,75.85
2018-08-03T01:01:27.966Z,75.95
2018-08-03T01:02:27.991Z,75.76
2018-08-03T01:03:28.004Z,75.27
2018-08-03T01:04:28.030Z,75.09
2018-08-03T01:05:28.056Z,75.37
2018-08-03T01:06:28.082Z,75.37
2018-08-03T01:07:28.107Z,75.27
2018-08-03T01:08:28.134Z,75.76
2018-08-03T01:09:28.160Z,75.76
2018-08-03T01:10:28.185Z,75.95
2018-08-03T01:11:28.225Z,75.24
2018-08-03T01:12:28.226Z,76.24
2018-08-03T01:13:28.251Z,75.67
2018-08-03T01:14:28.281Z,76.30
2018-08-03T01:15:28.307Z,76.53
2018-08-03T01:16:28.329Z,76.63
2018-08-03T01:17:28.356Z,76.78
2018-08-03T01:18:28.381Z,76.05
2018-08-03T01:19:28.410Z,75.76
2018-08-03T01:20:28.422Z,75.92
2018-08-03T01:21:28.446Z,76.78
2018-08-03T01:22:28.474Z,76.53
2018-08-03T01:23:28.510Z,76.68
2018-08-03T01:24:28.525Z,76.72
2018-08-03T01:25:28.549Z,76.59
2018-08-03T01:26:28.575Z,77.07
2018-08-03T01:27:28.601Z,77.07
2018-08-03T01:28:28.627Z,77.17
2018-08-03T01:29:28.643Z,77.46
2018-08-03T01:30:28.667Z,76.98
2018-08-03T01:31:28.695Z,76.98
2018-08-03T01:32:28.722Z,77.26
2018-08-03T01:33:28.745Z,77.55
2018-08-03T01:34:28.771Z,77.46
2018-08-03T01:35:28.797Z,77.46
2018-08-03T01:36:28.823Z,77.17
2018-08-03T01:37:28.850Z,77.07
2018-08-03T01:38:28.862Z,76.88
2018-08-03T01:39:28.901Z,77.17
2018-08-03T01:40:28.913Z,77.17
2018-08-03T01:41:28.940Z,77.26
2018-08-03T01:42:28.966Z,77.07
2018-08-03T01:43:28.991Z,77.17
2018-08-03T01:44:29.018Z,77.07
2018-08-03T01:45:29.057Z,77.17
2018-08-03T01:46:29.069Z,77.01
2018-08-03T01:47:29.085Z,76.88
2018-08-03T01:48:29.110Z,77.88
2018-08-03T01:49:29.136Z,77.75
2018-08-03T01:50:29.161Z,77.65
2018-08-03T01:51:29.190Z,77.55
2018-08-03T01:52:29.216Z,77.94
2018-08-03T01:53:29.240Z,77.98
2018-08-03T01:54:29.265Z,77.94
2018-08-03T01:55:29.279Z,77.84
2018-08-03T01:56:29.303Z,77.84
2018-08-03T01:57:29.330Z,78.52
2018-08-03T01:58:29.355Z,78.42
2018-08-03T01:59:29.389Z,77.94
2018-08-03T02:00:29.411Z,77.75
2018-08-03T02:01:29.433Z,77.75
2018-08-03T02:02:29.459Z,78.08
2018-08-03T02:03:29.478Z,78.13
2018-08-03T02:04:29.500Z,77.78
2018-08-03T02:05:29.526Z,77.78
2018-08-03T02:06:29.553Z,78.08
2018-08-03T02:07:29.578Z,77.40
2018-08-03T02:08:29.603Z,77.98
2018-08-03T02:09:29.633Z,78.27
2018-08-03T02:10:29.656Z,77.88
2018-08-03T02:11:29.685Z,78.46
2018-08-03T02:12:29.694Z,78.27
2018-08-03T02:13:29.733Z,78.46
2018-08-03T02:14:29.749Z,78.56
2018-08-03T02:15:29.772Z,78.46
2018-08-03T02:16:29.798Z,78.56
2018-08-03T02:17:29.823Z,78.46
2018-08-03T02:18:29.849Z,77.98
2018-08-03T02:19:29.875Z,77.78
2018-08-03T02:20:29.902Z,77.69
2018-08-03T02:21:29.928Z,77.69
2018-08-03T02:22:29.941Z,77.69
2018-08-03T02:23:29.968Z,78.08
2018-08-03T02:24:29.995Z,78.08
2018-08-03T02:25:30.020Z,77.88
2018-08-03T02:26:30.046Z,77.98
2018-08-03T02:27:30.072Z,78.08
2018-08-03T02:28:30.098Z,77.78
2018-08-03T02:29:30.123Z,78.08
2018-08-03T02:30:30.150Z,78.46
2018-08-03T02:31:30.164Z,78.27
2018-08-03T02:32:30.188Z,77.98
2018-08-03T02:33:30.215Z,77.78
2018-08-03T02:34:30.239Z,78.08
2018-08-03T02:35:30.267Z,77.59
2018-08-03T02:36:30.292Z,78.17
2018-08-03T02:37:30.319Z,77.40
2018-08-03T02:38:30.344Z,77.78
2018-08-03T02:39:30.380Z,78.08
2018-08-03T02:40:30.395Z,77.69
2018-08-03T02:41:30.411Z,77.78
2018-08-03T02:42:30.439Z,77.21
2018-08-03T02:43:30.462Z,77.21
2018-08-03T02:44:30.490Z,77.59
2018-08-03T02:45:30.516Z,77.40
2018-08-03T02:46:30.543Z,77.59
2018-08-03T02:47:30.565Z,76.72
2018-08-03T02:48:30.591Z,76.82
2018-08-03T02:49:30.617Z,76.72
2018-08-03T02:50:30.646Z,77.21
2018-08-03T02:51:30.669Z,76.82
2018-08-03T02:52:30.682Z,76.92
2018-08-03T02:53:30.707Z,77.25
2018-08-03T02:54:30.734Z,76.82
2018-08-03T02:55:30.759Z,77.30
2018-08-03T02:56:30.798Z,76.63
2018-08-03T02:57:30.812Z,76.76
2018-08-03T02:58:30.837Z,76.53
2018-08-03T02:59:30.863Z,77.15
2018-08-03T03:00:30.894Z,76.72
2018-08-03T03:01:30.915Z,76.53
2018-08-03T03:02:30.930Z,75.99
2018-08-03T03:03:30.955Z,76.82
2018-08-03T03:04:30.996Z,76.72
2018-08-03T03:05:31.008Z,76.43
2018-08-03T03:06:31.034Z,76.76
2018-08-03T03:07:31.070Z,77.01
2018-08-03T03:08:31.087Z,76.82
2018-08-03T03:09:31.113Z,76.63
2018-08-03T03:10:31.137Z,76.63
2018-08-03T03:11:31.163Z,76.63
2018-08-03T03:12:31.180Z,77.11
2018-08-03T03:13:31.204Z,76.82
2018-08-03T03:14:31.227Z,76.63
2018-08-03T03:15:31.258Z,77.11
2018-08-03T03:16:31.279Z,76.43
2018-08-03T03:17:31.305Z,76.72
2018-08-03T03:18:31.331Z,76.63
2018-08-03T03:19:31.395Z,76.63
2018-08-03T03:20:31.383Z,76.92
2018-08-03T03:21:31.410Z,76.63
2018-08-03T03:22:31.434Z,76.43
2018-08-03T03:23:31.450Z,76.63
2018-08-03T03:24:31.479Z,76.63
2018-08-03T03:25:31.506Z,75.95
2018-08-03T03:26:31.527Z,76.72
2018-08-03T03:27:31.553Z,76.43
2018-08-03T03:28:31.579Z,76.34
2018-08-03T03:29:31.606Z,76.92
2018-08-03T03:30:31.630Z,77.21
2018-08-03T03:31:31.657Z,76.63
2018-08-03T03:32:31.686Z,76.24
2018-08-03T03:33:31.742Z,76.82
2018-08-03T03:34:31.721Z,76.92
2018-08-03T03:35:31.746Z,77.11
2018-08-03T03:36:31.773Z,76.63
2018-08-03T03:37:31.798Z,77.30
2018-08-03T03:38:31.827Z,76.92
2018-08-03T03:39:31.869Z,77.01
2018-08-03T03:40:31.876Z,76.92
2018-08-03T03:41:31.893Z,76.82
2018-08-03T03:42:31.917Z,76.92
2018-08-03T03:43:31.943Z,77.30
2018-08-03T03:44:31.969Z,77.59
2018-08-03T03:45:32.050Z,77.30
2018-08-03T03:46:32.021Z,77.30
2018-08-03T03:47:32.047Z,77.40
2018-08-03T03:48:32.073Z,77.21
2018-08-03T03:49:32.098Z,76.63
2018-08-03T03:50:32.112Z,77.21
2018-08-03T03:51:32.137Z,77.69
2018-08-03T03:52:32.163Z,78.08
2018-08-03T03:53:32.202Z,77.94
2018-08-03T03:54:32.215Z,77.36
2018-08-03T03:55:32.254Z,77.65
2018-08-03T03:56:32.273Z,78.42
2018-08-03T03:57:32.295Z,78.13
2018-08-03T03:58:32.318Z,77.75
2018-08-03T03:59:32.334Z,78.03
2018-08-03T04:00:32.360Z,77.88
2018-08-03T04:01:32.385Z,78.03
2018-08-03T04:02:32.411Z,77.84
2018-08-03T04:03:32.437Z,78.13
2018-08-03T04:04:32.462Z,77.94
2018-08-03T04:05:32.489Z,77.94
2018-08-03T04:06:32.514Z,78.13
2018-08-03T04:07:32.541Z,78.23
2018-08-03T04:08:32.554Z,78.33
2018-08-03T04:09:32.580Z,78.81
2018-08-03T04:10:32.609Z,78.81
2018-08-03T04:11:32.631Z,78.81
2018-08-03T04:12:32.657Z,79.10
2018-08-03T04:13:32.683Z,79.39
2018-08-03T04:14:32.711Z,79.29
2018-08-03T04:15:32.735Z,78.81
2018-08-03T04:16:32.752Z,79.00
2018-08-03T04:17:32.775Z,79.00
2018-08-03T04:18:32.802Z,79.19
2018-08-03T04:19:32.827Z,80.06
2018-08-03T04:20:32.853Z,80.06
2018-08-03T04:21:32.881Z,80.54
2018-08-03T04:22:32.905Z,80.83
2018-08-03T04:23:32.931Z,80.54
2018-08-03T04:24:32.943Z,80.93
2018-08-03T04:25:33.012Z,80.54
2018-08-03T04:26:32.995Z,79.87
2018-08-03T04:27:33.021Z,80.83
2018-08-03T04:28:33.047Z,80.74
2018-08-03T04:29:33.074Z,80.93
2018-08-03T04:30:33.100Z,81.32
2018-08-03T04:31:33.124Z,80.93
2018-08-03T04:32:33.139Z,81.02
2018-08-03T04:33:33.165Z,80.93
2018-08-03T04:34:33.191Z,81.76
2018-08-03T04:35:33.217Z,80.74
2018-08-03T04:36:33.243Z,80.60
2018-08-03T04:37:33.269Z,80.79
2018-08-03T04:38:33.295Z,81.27
2018-08-03T04:39:33.310Z,80.89
2018-08-03T04:40:33.333Z,81.37
2018-08-03T04:41:33.359Z,81.99
2018-08-03T04:42:33.402Z,81.37
2018-08-03T04:43:33.411Z,81.47
2018-08-03T04:44:33.441Z,81.18
2018-08-03T04:45:33.467Z,81.66
2018-08-03T04:46:33.489Z,81.27
2018-08-03T04:47:33.503Z,81.47
2018-08-03T04:48:33.564Z,81.09
2018-08-03T04:49:33.555Z,81.85
2018-08-03T04:50:33.580Z,81.57
2018-08-03T04:51:33.607Z,82.05
2018-08-03T04:52:33.636Z,81.85
2018-08-03T04:53:33.659Z,81.18
2018-08-03T04:54:33.715Z,81.18
2018-08-03T04:55:33.697Z,81.27
2018-08-03T04:56:33.724Z,81.60
2018-08-03T04:57:33.749Z,81.85
2018-08-03T04:58:33.775Z,81.80
2018-08-03T04:59:33.804Z,81.85
2018-08-03T05:00:33.840Z,81.76
2018-08-03T05:01:33.853Z,82.34
2018-08-03T05:02:33.879Z,82.28
2018-08-03T05:03:33.895Z,81.90
2018-08-03T05:04:33.924Z,81.22
2018-08-03T05:05:33.945Z,81.70
2018-08-03T05:06:33.971Z,82.09
2018-08-03T05:07:33.997Z,82.38
2018-08-03T05:08:34.023Z,82.96
2018-08-03T05:09:34.051Z,82.48
2018-08-03T05:10:34.075Z,82.48
2018-08-03T05:11:34.101Z,82.96
2018-08-03T05:12:34.364Z,82.81
2018-08-03T05:13:34.141Z,82.13
2018-08-03T05:14:34.165Z,81.84
2018-08-03T05:15:34.273Z,81.26
2018-08-03T05:16:34.217Z,82.13
2018-08-03T05:17:34.293Z,81.45
2018-08-03T05:18:34.269Z,80.87
2018-08-03T05:19:34.296Z,81.26
2018-08-03T05:20:34.321Z,82.03
2018-08-03T05:21:34.351Z,80.30
2018-08-03T05:22:34.361Z,80.49
2018-08-03T05:23:34.389Z,80.30
2018-08-03T05:24:34.418Z,80.10
2018-08-03T05:25:34.439Z,79.43
2018-08-03T05:26:34.465Z,80.24
2018-08-03T05:27:34.493Z,81.49
2018-08-03T05:28:34.519Z,80.33
2018-08-03T05:29:34.544Z,80.53
2018-08-03T05:30:34.568Z,80.72
2018-08-03T05:31:34.595Z,80.91
2018-08-03T05:32:34.621Z,80.33
2018-08-03T05:33:34.647Z,80.24
2018-08-03T05:34:34.673Z,79.56
2018-08-03T05:35:34.717Z,80.91
2018-08-03T05:36:34.711Z,79.50
2018-08-03T05:37:34.738Z,78.92
2018-08-03T05:38:34.764Z,79.60
2018-08-03T05:39:34.789Z,80.28
2018-08-03T05:40:34.817Z,79.22
2018-08-03T05:41:34.841Z,78.54
2018-08-03T05:42:34.897Z,79.12
2018-08-03T05:43:34.896Z,79.64
2018-08-03T05:44:34.918Z,79.74
2018-08-03T05:45:35.003Z,79.83
2018-08-03T05:46:34.970Z,77.71
2018-08-03T05:47:34.996Z,76.84
2018-08-03T05:48:35.023Z,76.93
2018-08-03T05:49:35.064Z,76.93
2018-08-03T05:50:35.076Z,76.59
2018-08-03T05:51:35.101Z,77.42
2018-08-03T05:52:35.126Z,78.23
2018-08-03T05:53:35.153Z,77.26
2018-08-03T05:54:35.178Z,77.36
2018-08-03T05:55:35.204Z,76.68
2018-08-03T05:56:35.233Z,78.13
2018-08-03T05:57:35.258Z,78.71
2018-08-03T05:58:35.283Z,77.26
2018-08-03T05:59:35.308Z,77.75
2018-08-03T06:00:35.334Z,79.04
2018-08-03T06:01:35.359Z,78.85
2018-08-03T06:02:35.385Z,77.88
2018-08-03T06:03:35.414Z,79.52
2018-08-03T06:04:35.450Z,79.82
2018-08-03T06:05:35.463Z,79.24
2018-08-03T06:06:35.491Z,76.14
2018-08-03T06:07:35.515Z,75.17
2018-08-03T06:08:35.541Z,77.40
2018-08-03T06:09:35.605Z,75.46
2018-08-03T06:10:35.593Z,77.40
2018-08-03T06:11:35.620Z,75.27
2018-08-03T06:12:35.645Z,76.62
2018-08-03T06:13:35.671Z,77.59
2018-08-03T06:14:35.696Z,76.33
2018-08-03T06:15:35.722Z,77.50
2018-08-03T06:16:35.748Z,75.07
2018-08-03T06:17:35.776Z,74.21
2018-08-03T06:18:35.854Z,75.37
2018-08-03T06:19:35.840Z,76.04
2018-08-03T06:20:35.863Z,74.79
2018-08-03T06:21:35.879Z,75.37
2018-08-03T06:22:35.905Z,75.65
2018-08-03T06:23:35.932Z,74.92
2018-08-03T06:24:35.969Z,73.75
2018-08-03T06:25:35.983Z,73.75
2018-08-03T06:26:36.022Z,74.63
2018-08-03T06:27:36.048Z,75.79
2018-08-03T06:28:36.173Z,75.40
2018-08-03T06:29:36.168Z,75.02
2018-08-03T06:30:36.125Z,74.47
2018-08-03T06:31:36.152Z,74.08
2018-08-03T06:32:36.177Z,73.99
2018-08-03T06:33:36.203Z,73.99
2018-08-03T06:34:36.230Z,73.60
2018-08-03T06:35:36.254Z,72.63
2018-08-03T06:36:36.283Z,72.86
2018-08-03T06:37:36.307Z,73.83
2018-08-03T06:38:36.332Z,74.70
2018-08-03T06:39:36.359Z,73.48
2018-08-03T06:40:36.385Z,70.28
2018-08-03T06:41:36.422Z,70.31
2018-08-03T06:42:36.448Z,69.64
2018-08-03T06:43:36.474Z,69.44
2018-08-03T06:44:36.499Z,70.51
2018-08-03T06:45:36.525Z,70.73
2018-08-03T06:46:36.553Z,71.22
2018-08-03T06:47:36.591Z,69.60
2018-08-03T06:48:36.621Z,68.54
2018-08-03T06:49:36.644Z,68.54
2018-08-03T06:50:36.669Z,68.67
2018-08-03T06:51:36.707Z,67.31
2018-08-03T06:52:36.732Z,68.70
2018-08-03T06:53:36.796Z,69.09
2018-08-03T06:54:36.784Z,67.54
2018-08-03T06:55:36.826Z,68.05
2018-08-03T06:56:36.850Z,65.23
2018-08-03T06:57:36.927Z,65.92
2018-08-03T06:58:36.926Z,65.85
2018-08-03T06:59:36.943Z,65.85
2018-08-03T07:00:36.969Z,65.66
2018-08-03T07:01:37.005Z,63.16
2018-08-03T07:02:37.031Z,62.77
2018-08-03T07:03:37.056Z,62.19
2018-08-03T07:04:37.094Z,62.02
2018-08-03T07:05:37.122Z,63.09
2018-08-03T07:06:37.147Z,64.17
2018-08-03T07:07:37.185Z,64.49
2018-08-03T07:08:37.223Z,62.54
2018-08-03T07:09:37.249Z,61.66
2018-08-03T07:10:37.276Z,62.66
2018-08-03T07:11:37.301Z,62.86
2018-08-03T07:12:37.342Z,63.06
2018-08-03T07:13:37.366Z,62.50
2018-08-03T07:14:37.471Z,61.72
2018-08-03T07:15:37.435Z,61.85
2018-08-03T07:16:37.469Z,63.41
2018-08-03T07:17:37.495Z,62.92
2018-08-03T07:18:37.532Z,60.22
2018-08-03T07:19:37.559Z,60.71
2018-08-03T07:20:37.648Z,60.71
2018-08-03T07:21:37.625Z,61.04
2018-08-03T07:22:37.662Z,60.55
2018-08-03T07:23:37.688Z,60.84
2018-08-03T07:24:37.727Z,60.16
2018-08-03T07:25:37.752Z,58.72
2018-08-03T07:26:37.790Z,59.11
2018-08-03T07:27:37.817Z,57.64
2018-08-03T07:28:37.855Z,57.64
2018-08-03T07:29:37.892Z,56.08
2018-08-03T07:30:37.919Z,55.20
2018-08-03T07:31:38.013Z,55.30
2018-08-03T07:32:37.984Z,56.79
2018-08-03T07:33:38.022Z,55.42
2018-08-03T07:34:38.062Z,55.42
2018-08-03T07:35:38.088Z,55.22
2018-08-03T07:36:38.125Z,56.79
2018-08-03T07:37:38.163Z,57.97
2018-08-03T07:38:38.190Z,58.28
2018-08-03T07:39:38.228Z,56.82
2018-08-03T07:40:38.253Z,56.13
2018-08-03T07:41:38.293Z,56.82
2018-08-03T07:42:38.332Z,53.49
2018-08-03T07:43:38.369Z,55.26
2018-08-03T07:44:38.449Z,56.65
2018-08-03T07:45:38.433Z,54.57
2018-08-03T07:46:38.471Z,54.60
2018-08-03T07:47:38.498Z,53.98
2018-08-03T07:48:38.535Z,53.20
2018-08-03T07:49:38.574Z,53.30
2018-08-03T07:50:38.612Z,55.57
2018-08-03T07:51:38.639Z,53.98
2018-08-03T07:52:38.712Z,54.21
2018-08-03T07:53:38.718Z,54.21
2018-08-03T07:54:38.741Z,52.83
2018-08-03T07:55:38.780Z,55.57
2018-08-03T07:56:38.818Z,56.75
2018-08-03T07:57:38.858Z,53.62
2018-08-03T07:58:38.886Z,53.42
2018-08-03T07:59:38.922Z,54.52
2018-08-03T08:00:38.960Z,56.46
2018-08-03T08:01:38.998Z,56.29
2018-08-03T08:02:39.026Z,54.69
2018-08-03T08:03:39.063Z,53.06
2018-08-03T08:04:39.101Z,52.47
2018-08-03T08:05:39.141Z,55.51
2018-08-03T08:06:39.177Z,54.23
2018-08-03T08:07:39.218Z,54.33
2018-08-03T08:08:39.257Z,55.51
2018-08-03T08:09:39.322Z,56.68
2018-08-03T08:10:39.319Z,55.11
2018-08-03T08:11:39.357Z,55.33
2018-08-03T08:12:39.397Z,53.06
2018-08-03T08:13:39.435Z,52.56
2018-08-03T08:14:39.464Z,54.52
2018-08-03T08:15:39.530Z,52.96
2018-08-03T08:16:39.537Z,52.69
2018-08-03T08:17:39.577Z,54.55
2018-08-03T08:18:39.613Z,54.16
2018-08-03T08:19:39.652Z,54.25
2018-08-03T08:20:39.691Z,54.25
2018-08-03T08:21:39.730Z,53.57
2018-08-03T08:22:39.780Z,54.48
2018-08-03T08:23:39.794Z,53.99
2018-08-03T08:24:39.838Z,52.91
2018-08-03T08:25:39.870Z,51.61
2018-08-03T08:26:39.910Z,50.44
2018-08-03T08:27:39.948Z,50.44
2018-08-03T08:28:39.987Z,52.20
2018-08-03T08:29:40.038Z,51.49
2018-08-03T08:30:40.065Z,51.68
2018-08-03T08:31:40.139Z,54.13
2018-08-03T08:32:40.127Z,55.11
2018-08-03T08:33:40.166Z,55.60
2018-08-03T08:34:40.204Z,54.99
2018-08-03T08:35:40.243Z,57.07
2018-08-03T08:36:40.280Z,56.75
2018-08-03T08:37:40.307Z,54.30
2018-08-03T08:38:40.347Z,54.40
2018-08-03T08:39:40.387Z,54.99
2018-08-03T08:40:40.423Z,53.33
2018-08-03T08:41:40.448Z,55.06
2018-08-03T08:42:40.490Z,55.35
2018-08-03T08:43:40.590Z,55.62
2018-08-03T08:44:40.557Z,57.50
2018-08-03T08:45:40.591Z,58.65
2018-08-03T08:46:40.629Z,58.36
2018-08-03T08:47:40.656Z,54.74
2018-08-03T08:48:40.692Z,55.22
2018-08-03T08:49:40.731Z,56.60
2018-08-03T08:50:40.774Z,54.64
2018-08-03T08:51:40.795Z,53.86
2018-08-03T08:52:40.834Z,54.44
2018-08-03T08:53:40.860Z,55.40
2018-08-03T08:54:40.910Z,56.70
2018-08-03T08:55:40.937Z,57.45
2018-08-03T08:56:40.965Z,57.35
2018-08-03T08:57:41.015Z,55.79
2018-08-03T08:58:41.028Z,57.45
2018-08-03T08:59:41.084Z,58.62
2018-08-03T09:00:41.103Z,58.81
2018-08-03T09:01:41.129Z,57.84
2018-08-03T09:02:41.168Z,55.88
2018-08-03T09:03:41.207Z,54.32
2018-08-03T09:04:41.245Z,55.66
2018-08-03T09:05:41.272Z,55.49
2018-08-03T09:06:41.313Z,54.79
2018-08-03T09:07:41.406Z,55.00
2018-08-03T09:08:41.408Z,55.59
2018-08-03T09:09:41.401Z,58.20
2018-08-03T09:10:41.438Z,59.40
2018-08-03T09:11:41.465Z,59.11
2018-08-03T09:12:41.516Z,56.57
2018-08-03T09:13:41.542Z,54.13
2018-08-03T09:14:41.568Z,54.20
2018-08-03T09:15:41.607Z,54.42
2018-08-03T09:16:41.636Z,54.03
2018-08-03T09:17:41.670Z,55.20
2018-08-03T09:18:41.729Z,54.71
2018-08-03T09:19:41.743Z,54.91
2018-08-03T09:20:41.774Z,53.93
2018-08-03T09:21:41.812Z,53.64
2018-08-03T09:22:41.838Z,54.13
2018-08-03T09:23:41.879Z,54.22
2018-08-03T09:24:41.973Z,54.13
2018-08-03T09:25:41.942Z,53.27
2018-08-03T09:26:41.993Z,53.37
2018-08-03T09:27:42.018Z,53.27
2018-08-03T09:28:42.045Z,52.56
2018-08-03T09:29:42.082Z,52.39
2018-08-03T09:30:42.121Z,52.88
2018-08-03T09:31:42.148Z,52.78
2018-08-03T09:32:42.185Z,52.10
2018-08-03T09:33:42.224Z,52.88
2018-08-03T09:34:42.262Z,52.98
2018-08-03T09:35:42.287Z,55.52
2018-08-03T09:36:42.327Z,54.64
2018-08-03T09:37:42.364Z,55.71
2018-08-03T09:38:42.390Z,55.52
2018-08-03T09:39:42.429Z,53.56
2018-08-03T09:40:42.480Z,53.96
2018-08-03T09:41:42.494Z,53.37
2018-08-03T09:42:42.531Z,53.08
2018-08-03T09:43:42.570Z,53.00
2018-08-03T09:44:42.609Z,52.91
2018-08-03T09:45:42.646Z,52.12
2018-08-03T09:46:42.672Z,52.03
2018-08-03T09:47:42.712Z,53.39
2018-08-03T09:48:42.751Z,53.49
2018-08-03T09:49:42.791Z,52.51
2018-08-03T09:50:42.827Z,54.47
2018-08-03T09:51:42.853Z,54.77
2018-08-03T09:52:42.894Z,53.88
2018-08-03T09:53:42.942Z,55.74
2018-08-03T09:54:42.969Z,53.39
2018-08-03T09:55:43.007Z,52.32
2018-08-03T09:56:43.050Z,52.05
2018-08-03T09:57:43.073Z,51.17
2018-08-03T09:58:43.109Z,50.78
2018-08-03T09:59:43.149Z,50.68
2018-08-03T10:00:43.188Z,51.20
2018-08-03T10:01:43.264Z,51.00
2018-08-03T10:02:43.263Z,51.90
2018-08-03T10:03:43.302Z,50.83
2018-08-03T10:04:43.339Z,49.97
2018-08-03T10:05:43.379Z,49.38
2018-08-03T10:06:43.416Z,49.70
2018-08-03T10:07:43.459Z,49.38
2018-08-03T10:08:43.487Z,49.31
2018-08-03T10:09:43.560Z,49.04
2018-08-03T10:10:43.557Z,48.16
2018-08-03T10:11:43.596Z,47.89
2018-08-03T10:12:43.654Z,47.49
2018-08-03T10:13:43.673Z,47.20
2018-08-03T10:14:43.711Z,46.63
2018-08-03T10:15:43.763Z,46.63
2018-08-03T10:16:43.789Z,46.24
2018-08-03T10:17:43.830Z,46.34
2018-08-03T10:18:43.865Z,46.93
2018-08-03T10:19:43.904Z,48.01
2018-08-03T10:20:43.943Z,49.31
2018-08-03T10:21:43.980Z,48.94
2018-08-03T10:22:44.020Z,47.58
2018-08-03T10:23:44.073Z,46.50
2018-08-03T10:24:44.108Z,45.84
2018-08-03T10:25:44.147Z,45.86
2018-08-03T10:26:44.190Z,47.92
2018-08-03T10:27:44.225Z,49.04
2018-08-03T10:28:44.262Z,49.23
2018-08-03T10:29:44.381Z,47.38
2018-08-03T10:30:44.355Z,44.74
2018-08-03T10:31:44.390Z,43.17
2018-08-03T10:32:44.428Z,42.87
2018-08-03T10:33:44.480Z,44.37
2018-08-03T10:34:44.525Z,43.88
2018-08-03T10:35:44.557Z,42.42
2018-08-03T10:36:44.596Z,43.90
2018-08-03T10:37:44.645Z,43.62
2018-08-03T10:38:44.684Z,44.73
2018-08-03T10:39:44.723Z,43.45
2018-08-03T10:40:44.774Z,42.88
2018-08-03T10:41:44.813Z,42.21
2018-08-03T10:42:44.918Z,42.70
2018-08-03T10:43:44.901Z,40.94
2018-08-03T10:44:44.939Z,41.16
2018-08-03T10:45:44.991Z,42.05
2018-08-03T10:46:45.029Z,42.74
2018-08-03T10:47:45.068Z,42.25
2018-08-03T10:48:45.134Z,40.48
2018-08-03T10:49:45.169Z,39.50
2018-08-03T10:50:45.207Z,39.12
2018-08-03T10:51:45.247Z,38.92
2018-08-03T10:52:45.284Z,38.94
2018-08-03T10:53:45.337Z,38.44
2018-08-03T10:54:45.374Z,37.96
2018-08-03T10:55:45.426Z,37.96
2018-08-03T10:56:45.464Z,38.96
2018-08-03T10:57:45.514Z,40.25
2018-08-03T10:58:45.554Z,41.46
2018-08-03T10:59:45.592Z,39.09
2018-08-03T11:00:45.654Z,38.02
2018-08-03T11:01:45.735Z,37.45
2018-08-03T11:02:45.732Z,37.74
2018-08-03T11:03:45.770Z,37.36
2018-08-03T11:04:45.820Z,36.87
2018-08-03T11:05:45.861Z,36.78
2018-08-03T11:06:45.964Z,36.29
2018-08-03T11:07:45.953Z,36.50
2018-08-03T11:08:46.000Z,36.29
2018-08-03T11:09:46.039Z,36.70
2018-08-03T11:10:46.090Z,36.50
2018-08-03T11:11:46.127Z,36.42
2018-08-03T11:12:46.178Z,36.14
2018-08-03T11:13:46.280Z,36.93
2018-08-03T11:14:46.268Z,35.74
2018-08-03T11:15:46.307Z,36.74
2018-08-03T11:16:46.356Z,37.05
2018-08-03T11:17:46.396Z,37.05
2018-08-03T11:18:46.447Z,36.18
2018-08-03T11:19:46.489Z,34.88
2018-08-03T11:20:46.537Z,34.59
2018-08-03T11:21:46.576Z,34.80
2018-08-03T11:22:46.626Z,34.39
2018-08-03T11:23:46.677Z,34.80
2018-08-03T11:24:46.714Z,34.80
2018-08-03T11:25:46.765Z,34.51
2018-08-03T11:26:46.805Z,34.50
2018-08-03T11:27:46.856Z,34.09
2018-08-03T11:28:46.894Z,34.39
2018-08-03T11:29:46.978Z,34.80
2018-08-03T11:30:46.983Z,34.50
2018-08-03T11:31:47.034Z,34.59
2018-08-03T11:32:47.074Z,34.80
2018-08-03T11:33:47.123Z,34.41
2018-08-03T11:34:47.175Z,34.61
2018-08-03T11:35:47.219Z,34.39
2018-08-03T11:36:47.267Z,33.63
2018-08-03T11:37:47.303Z,33.73
2018-08-03T11:38:47.352Z,33.83
2018-08-03T11:39:47.395Z,34.53
2018-08-03T11:40:47.500Z,35.13
2018-08-03T11:41:47.482Z,35.53
2018-08-03T11:42:47.532Z,35.74
2018-08-03T11:43:47.582Z,35.74
2018-08-03T11:44:47.622Z,35.94
2018-08-03T11:45:47.673Z,35.64
2018-08-03T11:46:47.711Z,33.84
2018-08-03T11:47:47.762Z,33.47
2018-08-03T11:48:47.801Z,34.26
2018-08-03T11:49:47.856Z,33.26
2018-08-03T11:50:47.892Z,34.06
2018-08-03T11:51:47.940Z,35.38
2018-08-03T11:52:47.980Z,34.78
2018-08-03T11:53:48.031Z,34.08
2018-08-03T11:54:48.081Z,34.48
2018-08-03T11:55:48.121Z,33.48
2018-08-03T11:56:48.170Z,34.48
2018-08-03T11:57:48.209Z,34.98
2018-08-03T11:58:48.261Z,34.38
2018-08-03T11:59:48.310Z,34.78
2018-08-03T12:00:48.390Z,34.68
2018-08-03T12:01:48.436Z,33.78
2018-08-03T12:02:48.439Z,33.50
2018-08-03T12:03:48.489Z,33.78
2018-08-03T12:04:48.527Z,33.70
2018-08-03T12:05:48.577Z,33.00
2018-08-03T12:06:48.619Z,32.79
2018-08-03T12:07:48.669Z,32.70
2018-08-03T12:08:48.706Z,32.40
2018-08-03T12:09:48.757Z,32.50
2018-08-03T12:10:48.808Z,32.79
2018-08-03T12:11:48.849Z,33.11
2018-08-03T12:12:48.897Z,33.20
2018-08-03T12:13:48.936Z,33.31
2018-08-03T12:14:48.986Z,33.91
2018-08-03T12:15:49.028Z,32.81
2018-08-03T12:16:49.076Z,32.40
2018-08-03T12:17:49.125Z,32.79
2018-08-03T12:18:49.165Z,32.79
2018-08-03T12:19:49.218Z,32.29
2018-08-03T12:20:49.258Z,32.79
2018-08-03T12:21:49.306Z,33.11
2018-08-03T12:22:49.344Z,32.61
2018-08-03T12:23:49.422Z,32.81
2018-08-03T12:24:49.434Z,33.50
2018-08-03T12:25:49.484Z,33.20
2018-08-03T12:26:49.524Z,32.61
2018-08-03T12:27:49.586Z,32.79
2018-08-03T12:28:49.616Z,34.00
2018-08-03T12:29:49.663Z,33.48
2018-08-03T12:30:49.702Z,32.50
2018-08-03T12:31:49.753Z,33.39
2018-08-03T12:32:49.792Z,34.09
2018-08-03T12:33:49.842Z,34.38
2018-08-03T12:34:49.893Z,33.98
2018-08-03T12:35:49.932Z,33.28
2018-08-03T12:36:49.983Z,33.50
2018-08-03T12:37:50.023Z,32.70
2018-08-03T12:38:50.076Z,32.01
2018-08-03T12:39:50.110Z,32.40
2018-08-03T12:40:50.166Z,32.59
2018-08-03T12:41:50.201Z,32.38
2018-08-03T12:42:50.251Z,32.48
2018-08-03T12:43:50.294Z,32.78
2018-08-03T12:44:50.340Z,32.67
2018-08-03T12:45:50.412Z,34.66
2018-08-03T12:46:50.431Z,34.46
2018-08-03T12:47:50.468Z,33.26
2018-08-03T12:48:50.533Z,32.76
2018-08-03T12:49:50.560Z,32.46
2018-08-03T12:50:50.611Z,32.86
2018-08-03T12:51:50.647Z,34.36
2018-08-03T12:52:50.702Z,33.47